Strona główna
METAR-TAF:

METAR-TAF

Lotnisko :

Port lotniczy Iwano-Frankiwsk

Iwano-Frankiwsk, Ukraina

Szerokość geograficzna: 48-53-03N, Długość geograficzna: 024-41-10E, wysokość: 280 m

Aktualna obserwacja pogody

Raport powstał 44 minut temu, godzina 09:00 UTC
Wiatr 2 kt z kierunków zmiennych
Temperatura 5°C
Wilgotność 52%
Ciśnienie 1016 hPa
Widzialność 10 km lub więcej
Brak chmur poniżej 1500 m i brak chmur cumulonimbus

METAR: UKLI 290900Z VRB01MPS CAVOK 05/M04 Q1016 R10/090070 NOSIG

czas: 11:44 (09:44 UTC)

Prognoza

Raport powstał 1 godzina i 43 minut temu, godzina 08:01 UTC
Prognoza ważna od 29 godzina 09 UTC do 29 godzina 18 UTC
Wiatr 6 kt od południowy zachód
Widzialność 10 km lub więcej
Przerywane chmury na wysokości 2000 ft
Przejściowo
od 29 godzina 09 UTC do 29 godzina 15 UTC
Wiatr 10 kt od zachodnio-południowy zachód w porywach dochodzący do 19 kt

TAF: UKLI 290801Z 2909/2918 22003MPS 9999 BKN020 TX07/2913Z TN02/2918Z TEMPO 2909/2915 24005G10MPS

Obserwacja i prognoza pogody dla ponad 4000 lotnisk (raport METAR i TAF).

Dostępne stacje oznaczono żółtymi i czerwonymi punktami na mapie.

Najedź kursorem aby zobaczyć nazwę stacji.

Kliknij aby zobaczyć obserwacje i prognozy pogody.

Aby zmienić mapę: kliknij na zielony przycisk z czarnym krzyżykiem, aby powiększyć; na zielony przycisk z myślnikiem, aby pomniejszyć; na zielone strzałki, aby przejść do map sąsiednich.


METAR-TAF: